Time;durP1;ratioP1;P1;durP2;ratioP2;P2;SDS_P1;SDS_P2;PMS_P1;PMS_P2;Temp;Humidity;BMP_temperature;BMP_pressure;BME280_temperature;BME280_humidity;BME280_pressure;Samples;Min_cycle;Max_cycle;Signal;HPM_P1;HPM_P2
2022/06/26 00:01:00;;;;;;;4.43;3.60;;;;;;;;;;2091552;28;20036;-75
2022/06/26 00:02:19;;;;;;;5.60;3.88;;;;;;;;;;2090904;28;20492;-76
2022/06/26 00:03:38;;;;;;;3.53;3.25;;;;;;;;;;2087575;28;20025;-76
2022/06/26 00:04:57;;;;;;;3.83;3.53;;;;;;;;;;2093556;28;20059;-76
2022/06/26 00:06:16;;;;;;;5.10;3.60;;;;;;;;;;2092759;28;20455;-76
2022/06/26 00:07:35;;;;;;;5.88;3.80;;;;;;;;;;2089890;28;20422;-75
2022/06/26 00:08:54;;;;;;;3.50;3.30;;;;;;;;;;2088805;28;20044;-75
2022/06/26 00:10:13;;;;;;;4.47;4.07;;;;;;;;;;2091729;28;20029;-75
2022/06/26 00:11:32;;;;;;;4.35;3.95;;;;;;;;;;2092243;28;20033;-76
2022/06/26 00:12:51;;;;;;;3.78;3.58;;;;;;;;;;2091867;28;20440;-75
2022/06/26 00:14:10;;;;;;;4.75;3.63;;;;;;;;;;2091918;28;20428;-75
2022/06/26 00:15:29;;;;;;;4.72;3.75;;;;;;;;;;2090797;28;20032;-75
2022/06/26 00:16:48;;;;;;;3.97;3.67;;;;;;;;;;2091783;28;20044;-76
2022/06/26 00:18:06;;;;;;;3.92;3.63;;;;;;;;;;2092832;28;20037;-75
2022/06/26 00:19:25;;;;;;;4.07;3.60;;;;;;;;;;2093617;28;20036;-77
2022/06/26 00:20:44;;;;;;;3.95;3.65;;;;;;;;;;2092505;28;20107;-76
2022/06/26 00:22:05;;;;;;;4.00;3.55;;;;;;;;;;2090760;28;20037;-76
2022/06/26 00:23:25;;;;;;;3.90;3.70;;;;;;;;;;2092913;28;20069;-76
2022/06/26 00:24:44;;;;;;;3.92;3.63;;;;;;;;;;2092851;28;20022;-76
2022/06/26 00:26:03;;;;;;;4.97;3.38;;;;;;;;;;2093445;28;20033;-76
2022/06/26 00:27:22;;;;;;;5.78;3.72;;;;;;;;;;2092995;28;20028;-76
2022/06/26 00:28:41;;;;;;;6.18;3.40;;;;;;;;;;2093458;28;20033;-76
2022/06/26 00:30:00;;;;;;;3.88;3.45;;;;;;;;;;2092588;28;20032;-76
2022/06/26 00:31:19;;;;;;;7.68;4.53;;;;;;;;;;2091491;28;20028;-76
2022/06/26 00:32:38;;;;;;;4.35;3.22;;;;;;;;;;2090217;28;20025;-76
2022/06/26 00:33:57;;;;;;;4.65;4.00;;;;;;;;;;2091501;28;20028;-76
2022/06/26 00:35:16;;;;;;;3.80;3.60;;;;;;;;;;2091873;28;20032;-75
2022/06/26 00:36:35;;;;;;;4.00;3.63;;;;;;;;;;2093000;28;20037;-76
2022/06/26 00:37:53;;;;;;;4.07;3.78;;;;;;;;;;2087615;28;20108;-75
2022/06/26 00:39:12;;;;;;;4.00;3.60;;;;;;;;;;2091985;28;20021;-76
2022/06/26 00:40:31;;;;;;;4.13;3.65;;;;;;;;;;2093472;28;20017;-75
2022/06/26 00:41:51;;;;;;;5.90;3.67;;;;;;;;;;2092414;28;20099;-75
2022/06/26 00:43:11;;;;;;;4.28;3.97;;;;;;;;;;2093054;28;20029;-79
2022/06/26 00:44:30;;;;;;;4.57;3.85;;;;;;;;;;2092520;28;20029;-75
2022/06/26 00:45:49;;;;;;;4.03;3.67;;;;;;;;;;2089099;28;20052;-75
2022/06/26 00:47:07;;;;;;;4.07;3.78;;;;;;;;;;2090854;28;20036;-76
2022/06/26 00:48:26;;;;;;;3.97;3.78;;;;;;;;;;2091616;28;20123;-75
2022/06/26 00:49:45;;;;;;;4.03;3.72;;;;;;;;;;2091468;28;20060;-75
2022/06/26 00:51:05;;;;;;;4.00;3.70;;;;;;;;;;2091289;28;20442;-77
2022/06/26 00:52:23;;;;;;;4.10;3.80;;;;;;;;;;2091180;28;20526;-75
2022/06/26 00:53:42;;;;;;;4.28;3.97;;;;;;;;;;2092113;28;20033;-75
2022/06/26 00:55:02;;;;;;;4.93;4.20;;;;;;;;;;2092635;28;20037;-76
2022/06/26 00:56:21;;;;;;;7.15;4.07;;;;;;;;;;2092348;28;20033;-76
2022/06/26 00:57:40;;;;;;;4.95;4.30;;;;;;;;;;2089784;28;20041;-75
2022/06/26 00:58:59;;;;;;;5.53;3.85;;;;;;;;;;2091934;28;20049;-77
2022/06/26 01:00:20;;;;;;;4.00;3.78;;;;;;;;;;2091270;28;20025;-76
2022/06/26 01:01:39;;;;;;;4.20;3.80;;;;;;;;;;2091683;28;20025;-77
2022/06/26 01:02:57;;;;;;;4.60;4.18;;;;;;;;;;2088940;28;20037;-76
2022/06/26 01:04:17;;;;;;;4.78;4.03;;;;;;;;;;2088015;28;20021;-75
2022/06/26 01:05:35;;;;;;;4.18;3.80;;;;;;;;;;2090530;28;20475;-76
2022/06/26 01:06:54;;;;;;;4.72;4.30;;;;;;;;;;2092807;28;20029;-77
2022/06/26 01:08:13;;;;;;;4.78;4.38;;;;;;;;;;2089571;28;20040;-76
2022/06/26 01:09:36;;;;;;;5.88;4.25;;;;;;;;;;2092149;28;20040;-75
2022/06/26 01:10:55;;;;;;;7.70;4.40;;;;;;;;;;2092174;28;20491;-76
2022/06/26 01:12:13;;;;;;;6.50;4.13;;;;;;;;;;2093331;28;20115;-75
2022/06/26 01:13:32;;;;;;;4.47;4.07;;;;;;;;;;2089340;28;20021;-75
2022/06/26 01:14:51;;;;;;;4.35;3.95;;;;;;;;;;2092707;28;20033;-75
2022/06/26 01:16:10;;;;;;;4.63;4.22;;;;;;;;;;2093461;28;20538;-75
2022/06/26 01:17:28;;;;;;;4.53;4.22;;;;;;;;;;2093969;28;20417;-75
2022/06/26 01:18:49;;;;;;;4.75;3.92;;;;;;;;;;2093939;28;20029;-75
2022/06/26 01:20:08;;;;;;;4.82;4.22;;;;;;;;;;2093200;28;20025;-76
2022/06/26 01:21:28;;;;;;;4.43;4.15;;;;;;;;;;2094215;28;20481;-75
2022/06/26 01:22:55;;;;;;;4.50;4.22;;;;;;;;;;2094393;28;20370;-79
2022/06/26 01:24:14;;;;;;;4.53;4.13;;;;;;;;;;2094574;28;20032;-76
2022/06/26 01:25:40;;;;;;;6.03;4.45;;;;;;;;;;2093085;28;20025;-76
2022/06/26 01:27:00;;;;;;;4.75;4.20;;;;;;;;;;2094441;28;20037;-76
2022/06/26 01:28:22;;;;;;;4.70;4.30;;;;;;;;;;2094240;28;20025;-76
2022/06/26 01:29:41;;;;;;;4.82;4.53;;;;;;;;;;2093862;28;20119;-76
2022/06/26 01:31:00;;;;;;;4.18;3.88;;;;;;;;;;2093457;28;20038;-76
2022/06/26 01:32:19;;;;;;;4.13;3.83;;;;;;;;;;2091766;28;20041;-76
2022/06/26 01:33:38;;;;;;;5.78;4.20;;;;;;;;;;2092693;28;20032;-76
2022/06/26 01:34:57;;;;;;;5.30;4.78;;;;;;;;;;2094052;28;20025;-77
2022/06/26 01:36:16;;;;;;;4.55;4.15;;;;;;;;;;2094081;28;20020;-76
2022/06/26 01:37:35;;;;;;;4.53;4.13;;;;;;;;;;2093323;28;20025;-77
2022/06/26 01:38:54;;;;;;;5.97;4.65;;;;;;;;;;2092919;28;20037;-76
2022/06/26 01:40:13;;;;;;;4.78;4.38;;;;;;;;;;2093419;28;20029;-77
2022/06/26 01:41:32;;;;;;;4.97;4.55;;;;;;;;;;2093291;28;20480;-76
2022/06/26 01:42:51;;;;;;;5.18;4.78;;;;;;;;;;2094428;28;20420;-76
2022/06/26 01:44:10;;;;;;;5.32;4.30;;;;;;;;;;2091444;28;20502;-75
2022/06/26 01:45:28;;;;;;;5.18;4.20;;;;;;;;;;2088083;28;20502;-76
2022/06/26 01:46:47;;;;;;;4.65;4.25;;;;;;;;;;2091354;28;20025;-76
2022/06/26 01:48:06;;;;;;;4.93;4.50;;;;;;;;;;2094906;28;20021;-76
2022/06/26 01:49:26;;;;;;;4.28;3.97;;;;;;;;;;2093586;28;20032;-76
2022/06/26 01:50:44;;;;;;;4.28;3.85;;;;;;;;;;2093522;28;20029;-77
2022/06/26 01:52:03;;;;;;;4.45;4.05;;;;;;;;;;2092420;28;20514;-76
2022/06/26 01:53:22;;;;;;;4.50;4.07;;;;;;;;;;2092787;28;20036;-76
2022/06/26 01:54:41;;;;;;;4.13;3.72;;;;;;;;;;2092756;28;20020;-75
2022/06/26 01:56:00;;;;;;;4.93;4.55;;;;;;;;;;2093609;28;20393;-76
2022/06/26 01:57:19;;;;;;;5.13;4.25;;;;;;;;;;2091722;28;20028;-76
2022/06/26 01:58:38;;;;;;;4.85;4.43;;;;;;;;;;2088102;28;20061;-76
2022/06/26 01:59:56;;;;;;;4.35;4.10;;;;;;;;;;2094083;28;20028;-76
2022/06/26 02:01:16;;;;;;;4.55;4.15;;;;;;;;;;2093309;28;20029;-76
2022/06/26 02:02:35;;;;;;;6.22;4.40;;;;;;;;;;2094812;28;20413;-75
2022/06/26 02:03:54;;;;;;;4.40;4.10;;;;;;;;;;2092229;28;20025;-75
2022/06/26 02:05:13;;;;;;;5.07;4.65;;;;;;;;;;2094106;28;20346;-75
2022/06/26 02:06:32;;;;;;;4.65;4.22;;;;;;;;;;2092189;28;20029;-76
2022/06/26 02:07:51;;;;;;;5.00;4.60;;;;;;;;;;2093435;28;20417;-75
2022/06/26 02:13:36;;;;;;;4.70;4.28;;;;;;;;;;2093495;28;20115;-75
2022/06/26 02:13:36;;;;;;;4.68;4.30;;;;;;;;;;2093665;28;20393;-76
2022/06/26 02:14:06;;;;;;;5.05;4.63;;;;;;;;;;2090626;28;20036;-76
2022/06/26 02:15:25;;;;;;;4.68;4.10;;;;;;;;;;2090968;28;20032;-78
2022/06/26 02:16:44;;;;;;;4.65;4.28;;;;;;;;;;2093078;28;20544;-75
2022/06/26 02:18:03;;;;;;;5.50;4.55;;;;;;;;;;2092350;28;20557;-76
2022/06/26 02:19:21;;;;;;;4.68;4.38;;;;;;;;;;2091746;28;20029;-75
2022/06/26 02:20:41;;;;;;;6.15;4.53;;;;;;;;;;2090644;28;20020;-75
2022/06/26 02:22:00;;;;;;;4.78;4.22;;;;;;;;;;2093760;28;20041;-76
2022/06/26 02:23:19;;;;;;;4.75;4.35;;;;;;;;;;2091878;28;20103;-74
2022/06/26 02:24:41;;;;;;;5.20;4.72;;;;;;;;;;2091762;28;20033;-75
2022/06/26 02:26:00;;;;;;;5.40;4.90;;;;;;;;;;2092133;28;20021;-75
2022/06/26 02:27:19;;;;;;;6.13;4.38;;;;;;;;;;2093445;28;20029;-75
2022/06/26 02:28:39;;;;;;;6.38;4.20;;;;;;;;;;2091189;28;20033;-74
2022/06/26 02:29:58;;;;;;;4.55;4.15;;;;;;;;;;2090098;28;20025;-75
2022/06/26 02:31:17;;;;;;;6.60;4.53;;;;;;;;;;2093399;28;20096;-74
2022/06/26 02:32:36;;;;;;;5.82;4.60;;;;;;;;;;2092898;28;20466;-74
2022/06/26 02:33:55;;;;;;;4.93;4.55;;;;;;;;;;2095466;28;20028;-75
2022/06/26 02:35:14;;;;;;;4.75;4.40;;;;;;;;;;2093743;28;20045;-74
2022/06/26 02:36:33;;;;;;;5.63;4.50;;;;;;;;;;2094562;28;20029;-75
2022/06/26 02:37:54;;;;;;;4.78;4.47;;;;;;;;;;2092562;28;20089;-75
2022/06/26 02:39:13;;;;;;;5.22;4.38;;;;;;;;;;2090767;28;20036;-75
2022/06/26 02:40:32;;;;;;;6.10;4.60;;;;;;;;;;2092628;28;20028;-75
2022/06/26 02:41:50;;;;;;;5.10;4.60;;;;;;;;;;2092544;28;20434;-75
2022/06/26 02:43:10;;;;;;;4.90;4.50;;;;;;;;;;2092246;28;20427;-76
2022/06/26 02:44:29;;;;;;;4.95;4.53;;;;;;;;;;2099728;28;20028;-75
2022/06/26 02:45:49;;;;;;;4.88;4.57;;;;;;;;;;2096023;28;20028;-75
2022/06/26 02:47:08;;;;;;;4.82;4.43;;;;;;;;;;2094021;28;20032;-75
2022/06/26 02:48:27;;;;;;;5.50;5.00;;;;;;;;;;2094126;28;20033;-74
2022/06/26 02:49:46;;;;;;;4.95;4.53;;;;;;;;;;2092242;28;20032;-76
2022/06/26 02:51:05;;;;;;;5.50;5.03;;;;;;;;;;2093838;28;20115;-74
2022/06/26 02:52:24;;;;;;;6.97;5.00;;;;;;;;;;2091634;28;20104;-74
2022/06/26 02:53:42;;;;;;;5.13;4.68;;;;;;;;;;2093371;28;20437;-74
2022/06/26 02:55:02;;;;;;;5.32;4.90;;;;;;;;;;2090652;28;20040;-74
2022/06/26 02:56:21;;;;;;;6.53;5.32;;;;;;;;;;2093213;28;20041;-75
2022/06/26 02:57:40;;;;;;;5.00;4.60;;;;;;;;;;2092882;28;20033;-75
2022/06/26 02:58:59;;;;;;;5.88;5.28;;;;;;;;;;2093148;28;20123;-75
2022/06/26 03:00:18;;;;;;;6.13;5.55;;;;;;;;;;2091492;28;20462;-75
2022/06/26 03:01:37;;;;;;;4.78;4.47;;;;;;;;;;2092924;28;20418;-76
2022/06/26 03:02:56;;;;;;;4.78;4.38;;;;;;;;;;2092941;28;20494;-75
2022/06/26 03:04:15;;;;;;;5.18;4.45;;;;;;;;;;2093408;28;20052;-75
2022/06/26 03:05:35;;;;;;;5.30;4.90;;;;;;;;;;2093932;28;20402;-75
2022/06/26 03:06:53;;;;;;;5.07;4.68;;;;;;;;;;2094041;28;20386;-75
2022/06/26 03:08:12;;;;;;;4.95;4.60;;;;;;;;;;2093692;28;20037;-76
2022/06/26 03:09:31;;;;;;;4.78;4.43;;;;;;;;;;2092972;28;20021;-77
2022/06/26 03:10:50;;;;;;;6.70;4.90;;;;;;;;;;2094442;28;20032;-77
2022/06/26 03:12:09;;;;;;;7.05;4.38;;;;;;;;;;2087272;28;20028;-76
2022/06/26 03:13:28;;;;;;;6.60;4.80;;;;;;;;;;2093611;28;20060;-76
2022/06/26 03:14:47;;;;;;;4.93;4.53;;;;;;;;;;2092147;28;20048;-76
2022/06/26 03:16:06;;;;;;;4.88;4.47;;;;;;;;;;2093516;28;20021;-76
2022/06/26 03:17:25;;;;;;;4.93;4.43;;;;;;;;;;2092392;28;20040;-76
2022/06/26 03:18:44;;;;;;;6.63;4.95;;;;;;;;;;2092678;28;20214;-77
2022/06/26 03:20:03;;;;;;;6.47;4.25;;;;;;;;;;2092917;28;20064;-76
2022/06/26 03:21:22;;;;;;;7.40;4.90;;;;;;;;;;2093575;28;20040;-75
2022/06/26 03:22:42;;;;;;;5.30;4.97;;;;;;;;;;2093116;28;20402;-76
2022/06/26 03:24:01;;;;;;;4.75;4.45;;;;;;;;;;2094741;28;20478;-76
2022/06/26 03:25:20;;;;;;;4.72;4.43;;;;;;;;;;2092381;28;20037;-76
2022/06/26 03:26:39;;;;;;;4.63;4.32;;;;;;;;;;2092795;28;20033;-75
2022/06/26 03:27:57;;;;;;;4.95;4.55;;;;;;;;;;2091251;28;20048;-77
2022/06/26 03:29:16;;;;;;;6.22;5.07;;;;;;;;;;2091303;28;20041;-76
2022/06/26 03:30:35;;;;;;;5.03;4.60;;;;;;;;;;2090459;28;20029;-76
2022/06/26 03:31:55;;;;;;;4.93;4.53;;;;;;;;;;2094104;28;20037;-75
2022/06/26 03:33:14;;;;;;;4.72;4.43;;;;;;;;;;2089192;28;20453;-75
2022/06/26 03:34:33;;;;;;;4.55;4.18;;;;;;;;;;2092454;28;20041;-76
2022/06/26 03:35:52;;;;;;;7.28;4.75;;;;;;;;;;2091934;28;20033;-76
2022/06/26 03:37:11;;;;;;;4.85;3.95;;;;;;;;;;2094226;28;20044;-76
2022/06/26 03:38:30;;;;;;;6.10;4.45;;;;;;;;;;2091199;28;20036;-77
2022/06/26 03:39:48;;;;;;;6.72;4.78;;;;;;;;;;2093061;28;20025;-75
2022/06/26 03:41:07;;;;;;;5.10;4.70;;;;;;;;;;2092383;28;20389;-75
2022/06/26 03:42:26;;;;;;;5.22;4.57;;;;;;;;;;2091628;28;20020;-75
2022/06/26 03:43:45;;;;;;;4.68;4.30;;;;;;;;;;2090370;28;20513;-75
2022/06/26 03:45:04;;;;;;;4.82;4.43;;;;;;;;;;2091865;28;20056;-78
2022/06/26 03:46:23;;;;;;;4.88;4.50;;;;;;;;;;2090372;28;20032;-75
2022/06/26 03:47:42;;;;;;;4.57;4.28;;;;;;;;;;2089794;28;20021;-75
2022/06/26 03:49:02;;;;;;;4.53;4.15;;;;;;;;;;2091705;28;20033;-76
2022/06/26 03:50:21;;;;;;;4.72;4.43;;;;;;;;;;2090937;28;20054;-76
2022/06/26 03:51:39;;;;;;;5.07;4.50;;;;;;;;;;2093431;28;20402;-78
2022/06/26 03:52:59;;;;;;;5.45;4.97;;;;;;;;;;2092308;28;20123;-76
2022/06/26 03:54:19;;;;;;;6.32;4.50;;;;;;;;;;2093616;28;20390;-75
2022/06/26 03:55:38;;;;;;;4.38;3.97;;;;;;;;;;2091775;28;20104;-75
2022/06/26 03:56:57;;;;;;;4.78;4.47;;;;;;;;;;2093300;28;20517;-75
2022/06/26 03:58:16;;;;;;;5.18;4.72;;;;;;;;;;2091935;28;20461;-76
2022/06/26 03:59:36;;;;;;;4.93;4.53;;;;;;;;;;2093364;28;20029;-76
2022/06/26 04:00:55;;;;;;;4.95;4.65;;;;;;;;;;2090614;28;20021;-76
2022/06/26 04:02:14;;;;;;;4.85;4.50;;;;;;;;;;2093142;28;20061;-76
2022/06/26 04:03:33;;;;;;;4.63;4.22;;;;;;;;;;2093234;28;20029;-76
2022/06/26 04:04:52;;;;;;;4.95;4.28;;;;;;;;;;2092228;28;20020;-76
2022/06/26 04:06:11;;;;;;;4.55;4.25;;;;;;;;;;2089374;28;20029;-76
2022/06/26 04:07:30;;;;;;;4.32;3.92;;;;;;;;;;2094045;28;20036;-76
2022/06/26 04:08:48;;;;;;;5.07;4.57;;;;;;;;;;2092481;28;20029;-77
2022/06/26 04:10:07;;;;;;;4.97;4.68;;;;;;;;;;2092113;28;20496;-76
2022/06/26 04:11:26;;;;;;;5.38;4.90;;;;;;;;;;2090832;28;20436;-76
2022/06/26 04:12:45;;;;;;;4.78;4.38;;;;;;;;;;2089576;28;20079;-77
2022/06/26 04:14:04;;;;;;;4.75;4.45;;;;;;;;;;2090360;28;20276;-77
2022/06/26 04:15:22;;;;;;;4.78;4.45;;;;;;;;;;2092212;28;20036;-77
2022/06/26 04:16:41;;;;;;;4.93;4.53;;;;;;;;;;2091481;28;20079;-76
2022/06/26 04:18:01;;;;;;;5.10;4.65;;;;;;;;;;2091935;28;20040;-76
2022/06/26 04:19:20;;;;;;;4.35;4.15;;;;;;;;;;2092671;28;20037;-78
2022/06/26 04:20:39;;;;;;;4.70;4.30;;;;;;;;;;2091386;28;20021;-76
2022/06/26 04:21:58;;;;;;;6.82;4.28;;;;;;;;;;2088750;28;20041;-76
2022/06/26 04:23:16;;;;;;;6.25;4.60;;;;;;;;;;2097185;28;20029;-76
2022/06/26 04:24:35;;;;;;;4.90;4.47;;;;;;;;;;2090439;28;20195;-76
2022/06/26 04:25:54;;;;;;;4.78;4.38;;;;;;;;;;2092061;28;20036;-76
2022/06/26 04:27:13;;;;;;;6.05;4.40;;;;;;;;;;2091961;28;20064;-76
2022/06/26 04:28:32;;;;;;;4.97;4.63;;;;;;;;;;2092187;28;20029;-76
2022/06/26 04:29:51;;;;;;;4.90;4.50;;;;;;;;;;2092788;28;20036;-76
2022/06/26 04:31:10;;;;;;;4.82;4.35;;;;;;;;;;2091019;28;20029;-77
2022/06/26 04:32:28;;;;;;;4.88;4.38;;;;;;;;;;2093487;28;20029;-76
2022/06/26 04:33:48;;;;;;;4.65;4.25;;;;;;;;;;2092227;28;20036;-77
2022/06/26 04:35:07;;;;;;;5.45;4.68;;;;;;;;;;2089616;28;20066;-78
2022/06/26 04:36:25;;;;;;;4.88;4.43;;;;;;;;;;2091297;28;20044;-78
2022/06/26 04:37:46;;;;;;;4.10;3.80;;;;;;;;;;2091783;28;20036;-76
2022/06/26 04:39:05;;;;;;;6.72;4.72;;;;;;;;;;2092704;28;20113;-77
2022/06/26 04:40:24;;;;;;;5.88;4.78;;;;;;;;;;2091663;28;20108;-76
2022/06/26 04:41:43;;;;;;;6.43;4.40;;;;;;;;;;2090588;28;20048;-76
2022/06/26 04:43:02;;;;;;;4.63;4.25;;;;;;;;;;2093416;28;20041;-77
2022/06/26 04:44:20;;;;;;;4.85;4.55;;;;;;;;;;2088092;28;20029;-77
2022/06/26 04:45:39;;;;;;;6.47;4.82;;;;;;;;;;2086832;28;20025;-78
2022/06/26 04:46:58;;;;;;;5.10;4.50;;;;;;;;;;2091047;28;20024;-78
2022/06/26 04:48:17;;;;;;;4.75;4.05;;;;;;;;;;2091544;28;20041;-77
2022/06/26 04:49:36;;;;;;;5.53;4.47;;;;;;;;;;2091469;28;20100;-77
2022/06/26 04:50:55;;;;;;;4.53;4.22;;;;;;;;;;2092952;28;20033;-76
2022/06/26 04:52:14;;;;;;;4.63;4.32;;;;;;;;;;2092256;28;20111;-76
2022/06/26 04:53:33;;;;;;;6.43;4.68;;;;;;;;;;2090850;28;20021;-76
2022/06/26 04:54:53;;;;;;;5.50;4.50;;;;;;;;;;2093320;28;20394;-76
2022/06/26 04:56:12;;;;;;;4.35;4.05;;;;;;;;;;2091522;28;20490;-76
2022/06/26 04:57:31;;;;;;;4.05;3.65;;;;;;;;;;2087586;28;20394;-77
2022/06/26 04:58:51;;;;;;;4.50;4.20;;;;;;;;;;2089315;28;20108;-77
2022/06/26 05:00:11;;;;;;;4.38;4.03;;;;;;;;;;2087312;28;20028;-78
2022/06/26 05:01:31;;;;;;;4.70;4.40;;;;;;;;;;2092276;28;20032;-76
2022/06/26 05:02:50;;;;;;;4.47;4.10;;;;;;;;;;2093175;28;20033;-78
2022/06/26 05:04:09;;;;;;;4.97;4.13;;;;;;;;;;2090603;28;20021;-77
2022/06/26 05:05:28;;;;;;;4.88;4.03;;;;;;;;;;2092034;28;20028;-76
2022/06/26 05:06:47;;;;;;;4.45;3.92;;;;;;;;;;2092583;28;20025;-76
2022/06/26 05:08:06;;;;;;;3.88;3.65;;;;;;;;;;2092008;28;20025;-77
2022/06/26 05:09:25;;;;;;;6.13;4.20;;;;;;;;;;2088192;28;20033;-79
2022/06/26 05:10:44;;;;;;;5.20;4.60;;;;;;;;;;2097893;28;20471;-80
2022/06/26 05:12:03;;;;;;;4.95;4.28;;;;;;;;;;2094395;28;20037;-76
2022/06/26 05:13:22;;;;;;;4.55;4.13;;;;;;;;;;2091419;28;21373;-76
2022/06/26 05:14:41;;;;;;;6.32;4.03;;;;;;;;;;2092220;28;20037;-76
2022/06/26 05:16:00;;;;;;;4.45;4.05;;;;;;;;;;2091108;28;20527;-78
2022/06/26 05:17:18;;;;;;;4.47;4.18;;;;;;;;;;2091352;28;20108;-77
2022/06/26 05:18:37;;;;;;;4.60;4.20;;;;;;;;;;2091450;28;20421;-76
2022/06/26 05:19:59;;;;;;;4.03;3.63;;;;;;;;;;2083959;28;20029;-76
2022/06/26 05:21:18;;;;;;;5.15;4.10;;;;;;;;;;2089774;28;20025;-76
2022/06/26 05:22:37;;;;;;;4.13;3.72;;;;;;;;;;2091104;28;20394;-79
2022/06/26 05:23:56;;;;;;;4.72;4.00;;;;;;;;;;2085612;28;20029;-76
2022/06/26 05:25:14;;;;;;;6.03;3.90;;;;;;;;;;2089345;28;20027;-76
2022/06/26 05:26:34;;;;;;;4.80;4.40;;;;;;;;;;2089063;28;20024;-80
2022/06/26 05:27:53;;;;;;;4.30;4.10;;;;;;;;;;2093363;28;20028;-77
2022/06/26 05:29:12;;;;;;;5.68;3.70;;;;;;;;;;2095187;28;20107;-77
2022/06/26 05:30:31;;;;;;;4.82;4.32;;;;;;;;;;2090640;28;20095;-77
2022/06/26 05:31:50;;;;;;;6.78;4.60;;;;;;;;;;2087979;28;20056;-77
2022/06/26 05:33:09;;;;;;;4.13;3.83;;;;;;;;;;2092617;28;20044;-79
2022/06/26 05:34:28;;;;;;;7.60;4.18;;;;;;;;;;2088824;28;20490;-76
2022/06/26 05:35:47;;;;;;;3.80;3.50;;;;;;;;;;2092056;28;20036;-77
2022/06/26 05:37:05;;;;;;;4.10;3.67;;;;;;;;;;2092017;28;20029;-78
2022/06/26 05:38:24;;;;;;;5.30;4.05;;;;;;;;;;2089156;28;20533;-77
2022/06/26 05:39:43;;;;;;;4.72;4.10;;;;;;;;;;2087959;28;20024;-76
2022/06/26 05:41:02;;;;;;;6.35;3.65;;;;;;;;;;2090052;28;21408;-76
2022/06/26 05:42:21;;;;;;;6.57;4.00;;;;;;;;;;2091521;28;20108;-76
2022/06/26 05:43:42;;;;;;;4.07;3.63;;;;;;;;;;2092928;28;20397;-76
2022/06/26 05:45:00;;;;;;;6.78;3.90;;;;;;;;;;2093224;28;20029;-77
2022/06/26 05:46:19;;;;;;;6.07;3.55;;;;;;;;;;2092562;28;20417;-77
2022/06/26 05:47:38;;;;;;;6.05;4.03;;;;;;;;;;2090888;28;20147;-77
2022/06/26 05:48:58;;;;;;;4.78;3.72;;;;;;;;;;2092083;28;20041;-78
2022/06/26 05:50:16;;;;;;;4.50;4.00;;;;;;;;;;2092007;28;20037;-77
2022/06/26 05:51:35;;;;;;;4.72;4.32;;;;;;;;;;2091410;28;20028;-76
2022/06/26 05:52:54;;;;;;;3.90;3.58;;;;;;;;;;2092797;28;20084;-76
2022/06/26 05:54:13;;;;;;;3.50;3.30;;;;;;;;;;2091821;28;20515;-76
2022/06/26 05:55:33;;;;;;;5.20;3.83;;;;;;;;;;2090516;28;20036;-77
2022/06/26 05:56:52;;;;;;;4.45;3.92;;;;;;;;;;2087767;28;20029;-84
2022/06/26 05:58:11;;;;;;;4.28;3.45;;;;;;;;;;2086946;28;20099;-79
2022/06/26 05:59:30;;;;;;;3.70;3.50;;;;;;;;;;2097250;28;20025;-80
2022/06/26 06:00:49;;;;;;;4.13;3.83;;;;;;;;;;2093290;28;20442;-76
2022/06/26 06:02:10;;;;;;;3.88;3.58;;;;;;;;;;2089719;28;20021;-77
2022/06/26 06:03:30;;;;;;;4.88;4.47;;;;;;;;;;2091293;28;20040;-77
2022/06/26 06:04:49;;;;;;;3.90;3.55;;;;;;;;;;2094156;28;20494;-75
2022/06/26 06:06:09;;;;;;;4.05;3.75;;;;;;;;;;2091257;28;20456;-76
2022/06/26 06:07:27;;;;;;;3.95;3.50;;;;;;;;;;2090012;28;20533;-77
2022/06/26 06:08:46;;;;;;;4.32;3.90;;;;;;;;;;2092398;28;20059;-77
2022/06/26 06:10:06;;;;;;;3.92;3.63;;;;;;;;;;2093553;28;20032;-76
2022/06/26 06:11:25;;;;;;;5.70;3.55;;;;;;;;;;2092178;28;20032;-83
2022/06/26 06:12:44;;;;;;;4.00;3.70;;;;;;;;;;2093948;28;20068;-83
2022/06/26 06:14:03;;;;;;;5.32;3.70;;;;;;;;;;2092935;28;20032;-82
2022/06/26 06:15:22;;;;;;;7.53;3.60;;;;;;;;;;2092897;28;20501;-81
2022/06/26 06:16:47;;;;;;;4.07;3.72;;;;;;;;;;2092606;28;20496;-86
2022/06/26 06:18:06;;;;;;;4.70;4.18;;;;;;;;;;2092337;28;20040;-80
2022/06/26 06:19:25;;;;;;;4.30;3.97;;;;;;;;;;2093375;28;20033;-78
2022/06/26 06:20:45;;;;;;;4.20;3.80;;;;;;;;;;2091601;28;20025;-80
2022/06/26 06:22:04;;;;;;;4.82;3.72;;;;;;;;;;2093870;28;20033;-78
2022/06/26 06:23:23;;;;;;;4.15;3.70;;;;;;;;;;2091816;28;20032;-79
2022/06/26 06:24:42;;;;;;;4.03;3.60;;;;;;;;;;2089905;28;20473;-79
2022/06/26 06:26:01;;;;;;;4.05;3.70;;;;;;;;;;2090933;28;20510;-80
2022/06/26 06:27:20;;;;;;;7.93;3.42;;;;;;;;;;2089583;28;20024;-80
2022/06/26 06:28:39;;;;;;;3.30;3.10;;;;;;;;;;2089883;28;20037;-81
2022/06/26 06:29:57;;;;;;;4.20;3.85;;;;;;;;;;2092200;28;20056;-79
2022/06/26 06:31:16;;;;;;;4.07;3.67;;;;;;;;;;2092951;28;20029;-79
2022/06/26 06:32:35;;;;;;;5.70;3.55;;;;;;;;;;2091985;28;20573;-80
2022/06/26 06:33:54;;;;;;;3.25;3.13;;;;;;;;;;2093477;28;20033;-77
2022/06/26 06:35:13;;;;;;;5.20;3.70;;;;;;;;;;2092661;28;20415;-79
2022/06/26 06:36:33;;;;;;;3.60;3.40;;;;;;;;;;2090565;28;20033;-79
2022/06/26 06:37:51;;;;;;;3.72;3.03;;;;;;;;;;2094446;28;20112;-81
2022/06/26 06:39:10;;;;;;;5.07;3.10;;;;;;;;;;2092944;28;20053;-79
2022/06/26 06:40:29;;;;;;;3.47;3.13;;;;;;;;;;2093586;28;20053;-80
2022/06/26 06:41:49;;;;;;;3.75;3.45;;;;;;;;;;2093816;28;20032;-79
2022/06/26 06:43:11;;;;;;;3.90;3.33;;;;;;;;;;2093366;28;20022;-80
2022/06/26 06:44:30;;;;;;;4.30;3.33;;;;;;;;;;2093830;28;20414;-77
2022/06/26 06:45:48;;;;;;;4.03;3.17;;;;;;;;;;2090664;28;20607;-77
2022/06/26 06:47:07;;;;;;;3.78;3.30;;;;;;;;;;2090962;28;20478;-82
2022/06/26 06:48:26;;;;;;;3.45;3.15;;;;;;;;;;2093987;28;20115;-77
2022/06/26 06:49:45;;;;;;;3.63;3.28;;;;;;;;;;2094270;28;20041;-77
2022/06/26 06:51:04;;;;;;;5.28;3.33;;;;;;;;;;2093567;28;20404;-78
2022/06/26 06:52:23;;;;;;;6.68;3.42;;;;;;;;;;2094458;28;20127;-78
2022/06/26 06:53:42;;;;;;;4.43;3.05;;;;;;;;;;2090519;28;20111;-77
2022/06/26 06:55:02;;;;;;;4.65;3.38;;;;;;;;;;2090503;28;20519;-75
2022/06/26 06:56:21;;;;;;;3.53;3.25;;;;;;;;;;2093384;28;20033;-76
2022/06/26 06:57:39;;;;;;;3.85;3.10;;;;;;;;;;2093754;28;20020;-79
2022/06/26 06:59:00;;;;;;;3.40;3.17;;;;;;;;;;2091891;28;20040;-78
2022/06/26 07:00:18;;;;;;;4.40;2.78;;;;;;;;;;2097730;28;20032;-78
2022/06/26 07:01:38;;;;;;;3.22;3.03;;;;;;;;;;2095883;28;20398;-79
2022/06/26 07:03:00;;;;;;;3.25;3.05;;;;;;;;;;2092633;28;21012;-79
2022/06/26 07:04:19;;;;;;;2.90;2.70;;;;;;;;;;2092515;28;20028;-79
2022/06/26 07:05:38;;;;;;;3.42;3.13;;;;;;;;;;2093199;28;20021;-78
2022/06/26 07:06:57;;;;;;;4.45;3.25;;;;;;;;;;2091144;28;20032;-78
2022/06/26 07:08:16;;;;;;;3.20;2.90;;;;;;;;;;2092153;28;20018;-78
2022/06/26 07:09:35;;;;;;;3.35;3.05;;;;;;;;;;2092024;28;20033;-76
2022/06/26 07:10:55;;;;;;;3.10;2.72;;;;;;;;;;2093755;28;20021;-82
2022/06/26 07:12:17;;;;;;;4.88;3.35;;;;;;;;;;2093690;28;20024;-81
2022/06/26 07:13:36;;;;;;;3.70;2.73;;;;;;;;;;2092963;28;20021;-74
2022/06/26 07:14:55;;;;;;;3.60;2.63;;;;;;;;;;2092638;28;20238;-75
2022/06/26 07:16:14;;;;;;;4.63;3.10;;;;;;;;;;2093641;28;20402;-78
2022/06/26 07:17:33;;;;;;;4.55;3.20;;;;;;;;;;2091735;28;20505;-78
2022/06/26 07:18:52;;;;;;;5.72;3.22;;;;;;;;;;2092639;28;20159;-78
2022/06/26 07:20:11;;;;;;;3.50;3.13;;;;;;;;;;2093360;28;20502;-78
2022/06/26 07:21:29;;;;;;;4.18;3.13;;;;;;;;;;2093283;28;20021;-77
2022/06/26 07:22:48;;;;;;;4.28;3.15;;;;;;;;;;2094104;28;20032;-78
2022/06/26 07:24:07;;;;;;;3.40;3.20;;;;;;;;;;2088314;28;20107;-78
2022/06/26 07:25:26;;;;;;;4.07;3.35;;;;;;;;;;2092202;28;20032;-79
2022/06/26 07:26:45;;;;;;;4.35;3.30;;;;;;;;;;2092785;28;20032;-80
2022/06/26 07:28:04;;;;;;;7.43;3.55;;;;;;;;;;2094453;28;20021;-78
2022/06/26 07:29:26;;;;;;;13.32;10.05;;;;;;;;;;2091410;28;20028;-76
2022/06/26 07:30:45;;;;;;;13.20;11.60;;;;;;;;;;2088206;28;20036;-75
2022/06/26 07:32:04;;;;;;;29.10;19.30;;;;;;;;;;2093669;28;20036;-77
2022/06/26 07:35:01;;;;;;;34.50;22.00;;;;;;;;;;2094151;28;20112;-76
2022/06/26 07:36:20;;;;;;;5.05;3.45;;;;;;;;;;2092412;28;20108;-76
2022/06/26 07:37:39;;;;;;;3.25;2.95;;;;;;;;;;2090615;28;20044;-75
2022/06/26 07:38:57;;;;;;;5.50;2.92;;;;;;;;;;2090922;28;20025;-79
2022/06/26 07:40:16;;;;;;;7.93;5.57;;;;;;;;;;2092129;28;20029;-77
2022/06/26 07:41:35;;;;;;;14.95;5.32;;;;;;;;;;2089655;28;20032;-77
2022/06/26 07:42:54;;;;;;;9.57;4.75;;;;;;;;;;2090060;28;20028;-76
2022/06/26 07:44:13;;;;;;;4.35;3.63;;;;;;;;;;2090574;28;20029;-79
2022/06/26 07:45:32;;;;;;;3.38;3.15;;;;;;;;;;2091388;28;20025;-77
2022/06/26 07:46:51;;;;;;;4.82;3.50;;;;;;;;;;2088718;28;20033;-75
2022/06/26 07:48:10;;;;;;;3.97;3.05;;;;;;;;;;2090362;28;20480;-78
2022/06/26 07:49:29;;;;;;;5.60;2.83;;;;;;;;;;2091550;28;20036;-74
2022/06/26 07:50:49;;;;;;;3.28;3.08;;;;;;;;;;2091113;28;20036;-75
2022/06/26 07:52:08;;;;;;;4.63;3.10;;;;;;;;;;2091278;28;20517;-76
2022/06/26 07:53:27;;;;;;;3.42;2.92;;;;;;;;;;2090024;28;20032;-76
2022/06/26 07:54:47;;;;;;;3.53;3.33;;;;;;;;;;2093205;28;20028;-76
2022/06/26 07:56:06;;;;;;;2.95;2.70;;;;;;;;;;2093629;28;20503;-76
2022/06/26 07:57:25;;;;;;;5.20;3.25;;;;;;;;;;2093090;28;20032;-76
2022/06/26 07:58:44;;;;;;;7.85;3.03;;;;;;;;;;2093557;28;20037;-76